sensor_id;sensor_type;location;lat;lon;timestamp;P1;durP1;ratioP1;P2;durP2;ratioP2
3726;SDS011;1879;45.876;12.300;2024-01-25T00:01:20;102.77;;;92.03;;
3726;SDS011;1879;45.876;12.300;2024-01-25T00:03:47;111.50;;;100.10;;
3726;SDS011;1879;45.876;12.300;2024-01-25T00:06:14;96.17;;;86.73;;
3726;SDS011;1879;45.876;12.300;2024-01-25T00:08:42;102.47;;;92.07;;
3726;SDS011;1879;45.876;12.300;2024-01-25T00:11:09;95.70;;;86.20;;
3726;SDS011;1879;45.876;12.300;2024-01-25T00:13:36;90.20;;;80.83;;
3726;SDS011;1879;45.876;12.300;2024-01-25T00:16:04;92.30;;;82.97;;
3726;SDS011;1879;45.876;12.300;2024-01-25T00:18:31;95.50;;;85.80;;
3726;SDS011;1879;45.876;12.300;2024-01-25T00:20:58;101.77;;;91.80;;
3726;SDS011;1879;45.876;12.300;2024-01-25T00:23:25;89.03;;;80.00;;
3726;SDS011;1879;45.876;12.300;2024-01-25T00:25:54;98.50;;;88.50;;
3726;SDS011;1879;45.876;12.300;2024-01-25T00:28:23;90.27;;;81.13;;
3726;SDS011;1879;45.876;12.300;2024-01-25T00:30:50;97.13;;;85.83;;
3726;SDS011;1879;45.876;12.300;2024-01-25T00:33:17;91.80;;;82.30;;
3726;SDS011;1879;45.876;12.300;2024-01-25T00:35:44;93.30;;;83.90;;
3726;SDS011;1879;45.876;12.300;2024-01-25T00:38:12;87.60;;;79.00;;
3726;SDS011;1879;45.876;12.300;2024-01-25T00:40:39;92.70;;;83.20;;
3726;SDS011;1879;45.876;12.300;2024-01-25T00:43:08;92.17;;;82.47;;
3726;SDS011;1879;45.876;12.300;2024-01-25T00:45:36;89.30;;;79.90;;
3726;SDS011;1879;45.876;12.300;2024-01-25T00:48:04;87.50;;;78.50;;
3726;SDS011;1879;45.876;12.300;2024-01-25T00:50:31;83.47;;;74.87;;
3726;SDS011;1879;45.876;12.300;2024-01-25T00:52:59;99.03;;;89.00;;
3726;SDS011;1879;45.876;12.300;2024-01-25T00:55:26;83.23;;;74.60;;
3726;SDS011;1879;45.876;12.300;2024-01-25T00:57:54;84.53;;;76.07;;
3726;SDS011;1879;45.876;12.300;2024-01-25T01:00:23;92.60;;;83.10;;
3726;SDS011;1879;45.876;12.300;2024-01-25T01:02:51;93.80;;;84.33;;
3726;SDS011;1879;45.876;12.300;2024-01-25T01:05:20;86.73;;;78.00;;
3726;SDS011;1879;45.876;12.300;2024-01-25T01:07:48;91.70;;;81.63;;
3726;SDS011;1879;45.876;12.300;2024-01-25T01:10:15;86.60;;;77.63;;
3726;SDS011;1879;45.876;12.300;2024-01-25T01:12:42;90.20;;;80.50;;
3726;SDS011;1879;45.876;12.300;2024-01-25T01:15:09;96.10;;;86.37;;
3726;SDS011;1879;45.876;12.300;2024-01-25T01:17:37;102.77;;;91.97;;
3726;SDS011;1879;45.876;12.300;2024-01-25T01:20:05;87.50;;;78.60;;
3726;SDS011;1879;45.876;12.300;2024-01-25T01:22:32;85.43;;;76.63;;
3726;SDS011;1879;45.876;12.300;2024-01-25T01:24:59;84.00;;;75.23;;
3726;SDS011;1879;45.876;12.300;2024-01-25T01:27:26;88.70;;;79.30;;
3726;SDS011;1879;45.876;12.300;2024-01-25T01:29:53;94.70;;;84.67;;
3726;SDS011;1879;45.876;12.300;2024-01-25T01:32:20;86.90;;;77.77;;
3726;SDS011;1879;45.876;12.300;2024-01-25T01:34:48;88.00;;;78.90;;
3726;SDS011;1879;45.876;12.300;2024-01-25T01:37:15;93.93;;;84.27;;
3726;SDS011;1879;45.876;12.300;2024-01-25T01:39:42;84.10;;;73.97;;
3726;SDS011;1879;45.876;12.300;2024-01-25T01:42:09;92.53;;;83.53;;
3726;SDS011;1879;45.876;12.300;2024-01-25T01:44:36;94.50;;;84.10;;
3726;SDS011;1879;45.876;12.300;2024-01-25T01:47:03;83.87;;;75.10;;
3726;SDS011;1879;45.876;12.300;2024-01-25T01:49:30;88.67;;;79.23;;
3726;SDS011;1879;45.876;12.300;2024-01-25T01:51:59;92.40;;;82.40;;
3726;SDS011;1879;45.876;12.300;2024-01-25T01:54:26;86.20;;;77.37;;
3726;SDS011;1879;45.876;12.300;2024-01-25T01:56:53;87.87;;;78.87;;
3726;SDS011;1879;45.876;12.300;2024-01-25T01:59:20;85.13;;;76.17;;
3726;SDS011;1879;45.876;12.300;2024-01-25T02:01:50;80.40;;;71.80;;
3726;SDS011;1879;45.876;12.300;2024-01-25T02:04:17;88.13;;;79.07;;
3726;SDS011;1879;45.876;12.300;2024-01-25T02:06:44;77.93;;;69.93;;
3726;SDS011;1879;45.876;12.300;2024-01-25T02:09:12;85.70;;;76.70;;
3726;SDS011;1879;45.876;12.300;2024-01-25T02:11:39;88.20;;;79.00;;
3726;SDS011;1879;45.876;12.300;2024-01-25T02:14:06;78.90;;;70.80;;
3726;SDS011;1879;45.876;12.300;2024-01-25T02:16:36;86.10;;;77.03;;
3726;SDS011;1879;45.876;12.300;2024-01-25T02:19:02;84.17;;;75.10;;
3726;SDS011;1879;45.876;12.300;2024-01-25T02:21:29;81.47;;;72.90;;
3726;SDS011;1879;45.876;12.300;2024-01-25T02:23:58;82.43;;;74.03;;
3726;SDS011;1879;45.876;12.300;2024-01-25T02:26:25;80.13;;;72.13;;
3726;SDS011;1879;45.876;12.300;2024-01-25T02:28:51;87.70;;;77.80;;
3726;SDS011;1879;45.876;12.300;2024-01-25T02:31:18;90.23;;;80.93;;
3726;SDS011;1879;45.876;12.300;2024-01-25T02:33:45;92.00;;;82.87;;
3726;SDS011;1879;45.876;12.300;2024-01-25T02:36:12;80.77;;;72.57;;
3726;SDS011;1879;45.876;12.300;2024-01-25T02:38:39;85.33;;;75.93;;
3726;SDS011;1879;45.876;12.300;2024-01-25T02:41:07;93.13;;;83.30;;
3726;SDS011;1879;45.876;12.300;2024-01-25T02:43:34;91.00;;;81.00;;
3726;SDS011;1879;45.876;12.300;2024-01-25T02:46:01;92.80;;;82.90;;
3726;SDS011;1879;45.876;12.300;2024-01-25T02:48:28;81.90;;;73.60;;
3726;SDS011;1879;45.876;12.300;2024-01-25T02:50:55;87.70;;;78.97;;
3726;SDS011;1879;45.876;12.300;2024-01-25T02:53:21;89.40;;;80.00;;
3726;SDS011;1879;45.876;12.300;2024-01-25T02:55:48;82.53;;;74.00;;
3726;SDS011;1879;45.876;12.300;2024-01-25T02:58:16;81.73;;;72.93;;
3726;SDS011;1879;45.876;12.300;2024-01-25T03:00:43;84.37;;;75.30;;
3726;SDS011;1879;45.876;12.300;2024-01-25T03:03:13;81.67;;;73.17;;
3726;SDS011;1879;45.876;12.300;2024-01-25T03:05:41;82.60;;;71.00;;
3726;SDS011;1879;45.876;12.300;2024-01-25T03:08:08;80.07;;;71.80;;
3726;SDS011;1879;45.876;12.300;2024-01-25T03:10:35;84.33;;;75.37;;
3726;SDS011;1879;45.876;12.300;2024-01-25T03:13:02;86.03;;;76.97;;
3726;SDS011;1879;45.876;12.300;2024-01-25T03:15:30;91.27;;;81.13;;
3726;SDS011;1879;45.876;12.300;2024-01-25T03:17:57;84.77;;;75.43;;
3726;SDS011;1879;45.876;12.300;2024-01-25T03:20:24;86.30;;;76.83;;
3726;SDS011;1879;45.876;12.300;2024-01-25T03:22:51;81.37;;;73.00;;
3726;SDS011;1879;45.876;12.300;2024-01-25T03:25:19;89.73;;;80.47;;
3726;SDS011;1879;45.876;12.300;2024-01-25T03:27:46;85.70;;;76.80;;
3726;SDS011;1879;45.876;12.300;2024-01-25T03:30:13;93.00;;;83.17;;
3726;SDS011;1879;45.876;12.300;2024-01-25T03:32:42;93.87;;;83.77;;
3726;SDS011;1879;45.876;12.300;2024-01-25T03:35:09;84.03;;;75.53;;
3726;SDS011;1879;45.876;12.300;2024-01-25T03:37:36;83.50;;;74.90;;
3726;SDS011;1879;45.876;12.300;2024-01-25T03:40:03;81.17;;;72.80;;
3726;SDS011;1879;45.876;12.300;2024-01-25T03:42:31;80.53;;;72.37;;
3726;SDS011;1879;45.876;12.300;2024-01-25T03:44:58;78.93;;;70.60;;
3726;SDS011;1879;45.876;12.300;2024-01-25T03:47:24;84.33;;;75.43;;
3726;SDS011;1879;45.876;12.300;2024-01-25T03:49:53;82.37;;;73.87;;
3726;SDS011;1879;45.876;12.300;2024-01-25T03:52:20;81.50;;;73.00;;
3726;SDS011;1879;45.876;12.300;2024-01-25T03:54:47;87.40;;;78.30;;
3726;SDS011;1879;45.876;12.300;2024-01-25T03:57:13;82.33;;;73.33;;
3726;SDS011;1879;45.876;12.300;2024-01-25T03:59:40;93.77;;;83.87;;
3726;SDS011;1879;45.876;12.300;2024-01-25T04:02:07;87.20;;;77.77;;
3726;SDS011;1879;45.876;12.300;2024-01-25T04:04:35;90.67;;;81.17;;
3726;SDS011;1879;45.876;12.300;2024-01-25T04:07:03;86.77;;;77.80;;
3726;SDS011;1879;45.876;12.300;2024-01-25T04:09:30;89.77;;;80.27;;
3726;SDS011;1879;45.876;12.300;2024-01-25T04:11:57;90.40;;;80.60;;
3726;SDS011;1879;45.876;12.300;2024-01-25T04:14:24;91.03;;;81.57;;
3726;SDS011;1879;45.876;12.300;2024-01-25T04:16:51;91.57;;;81.87;;
3726;SDS011;1879;45.876;12.300;2024-01-25T04:19:18;90.43;;;80.93;;
3726;SDS011;1879;45.876;12.300;2024-01-25T04:21:44;86.17;;;76.97;;
3726;SDS011;1879;45.876;12.300;2024-01-25T04:24:13;95.60;;;85.63;;
3726;SDS011;1879;45.876;12.300;2024-01-25T04:26:40;87.47;;;78.20;;
3726;SDS011;1879;45.876;12.300;2024-01-25T04:29:06;93.13;;;83.27;;
3726;SDS011;1879;45.876;12.300;2024-01-25T04:31:33;82.67;;;74.13;;
3726;SDS011;1879;45.876;12.300;2024-01-25T04:34:00;91.30;;;78.23;;
3726;SDS011;1879;45.876;12.300;2024-01-25T04:36:27;80.30;;;71.70;;
3726;SDS011;1879;45.876;12.300;2024-01-25T04:38:54;79.90;;;71.27;;
3726;SDS011;1879;45.876;12.300;2024-01-25T04:41:22;82.33;;;74.13;;
3726;SDS011;1879;45.876;12.300;2024-01-25T04:43:49;77.50;;;69.00;;
3726;SDS011;1879;45.876;12.300;2024-01-25T04:46:16;79.93;;;71.40;;
3726;SDS011;1879;45.876;12.300;2024-01-25T04:48:43;82.27;;;73.93;;
3726;SDS011;1879;45.876;12.300;2024-01-25T04:51:14;82.40;;;73.80;;
3726;SDS011;1879;45.876;12.300;2024-01-25T04:53:41;82.80;;;74.33;;
3726;SDS011;1879;45.876;12.300;2024-01-25T04:56:08;80.03;;;71.73;;
3726;SDS011;1879;45.876;12.300;2024-01-25T04:58:37;76.23;;;68.70;;
3726;SDS011;1879;45.876;12.300;2024-01-25T05:01:04;75.80;;;67.50;;
3726;SDS011;1879;45.876;12.300;2024-01-25T05:03:32;72.80;;;65.37;;
3726;SDS011;1879;45.876;12.300;2024-01-25T05:05:59;79.17;;;70.77;;
3726;SDS011;1879;45.876;12.300;2024-01-25T05:08:26;78.70;;;70.47;;
3726;SDS011;1879;45.876;12.300;2024-01-25T05:10:53;80.53;;;71.27;;
3726;SDS011;1879;45.876;12.300;2024-01-25T05:13:20;77.17;;;68.97;;
3726;SDS011;1879;45.876;12.300;2024-01-25T05:15:48;85.07;;;76.40;;
3726;SDS011;1879;45.876;12.300;2024-01-25T05:18:15;76.07;;;68.03;;
3726;SDS011;1879;45.876;12.300;2024-01-25T05:20:42;81.30;;;72.90;;
3726;SDS011;1879;45.876;12.300;2024-01-25T05:23:09;75.23;;;66.77;;
3726;SDS011;1879;45.876;12.300;2024-01-25T05:25:36;76.60;;;69.03;;
3726;SDS011;1879;45.876;12.300;2024-01-25T05:28:03;70.17;;;63.27;;
3726;SDS011;1879;45.876;12.300;2024-01-25T05:30:30;74.37;;;65.67;;
3726;SDS011;1879;45.876;12.300;2024-01-25T05:32:59;77.30;;;69.30;;
3726;SDS011;1879;45.876;12.300;2024-01-25T05:35:26;75.57;;;67.77;;
3726;SDS011;1879;45.876;12.300;2024-01-25T05:37:53;77.50;;;69.80;;
3726;SDS011;1879;45.876;12.300;2024-01-25T05:40:20;72.70;;;64.87;;
3726;SDS011;1879;45.876;12.300;2024-01-25T05:42:47;77.80;;;69.60;;
3726;SDS011;1879;45.876;12.300;2024-01-25T05:45:14;73.63;;;66.07;;
3726;SDS011;1879;45.876;12.300;2024-01-25T05:47:44;74.63;;;66.82;;
3726;SDS011;1879;45.876;12.300;2024-01-25T05:50:13;70.47;;;63.00;;
3726;SDS011;1879;45.876;12.300;2024-01-25T05:52:40;75.45;;;67.53;;
3726;SDS011;1879;45.876;12.300;2024-01-25T05:55:07;78.47;;;69.43;;
3726;SDS011;1879;45.876;12.300;2024-01-25T05:57:34;67.20;;;60.30;;
3726;SDS011;1879;45.876;12.300;2024-01-25T06:00:02;72.70;;;65.30;;
3726;SDS011;1879;45.876;12.300;2024-01-25T06:02:30;77.30;;;69.60;;
3726;SDS011;1879;45.876;12.300;2024-01-25T06:04:57;82.43;;;73.77;;
3726;SDS011;1879;45.876;12.300;2024-01-25T06:07:26;76.67;;;69.30;;
3726;SDS011;1879;45.876;12.300;2024-01-25T06:09:53;78.23;;;70.63;;
3726;SDS011;1879;45.876;12.300;2024-01-25T06:12:20;85.37;;;76.77;;
3726;SDS011;1879;45.876;12.300;2024-01-25T06:14:46;72.03;;;64.40;;
3726;SDS011;1879;45.876;12.300;2024-01-25T06:17:13;74.23;;;66.37;;
3726;SDS011;1879;45.876;12.300;2024-01-25T06:19:40;76.90;;;69.10;;
3726;SDS011;1879;45.876;12.300;2024-01-25T06:22:06;79.47;;;71.27;;
3726;SDS011;1879;45.876;12.300;2024-01-25T06:24:34;83.87;;;75.17;;
3726;SDS011;1879;45.876;12.300;2024-01-25T06:27:01;81.77;;;73.23;;
3726;SDS011;1879;45.876;12.300;2024-01-25T06:29:28;77.67;;;69.90;;
3726;SDS011;1879;45.876;12.300;2024-01-25T06:31:55;78.97;;;69.87;;
3726;SDS011;1879;45.876;12.300;2024-01-25T06:34:22;85.03;;;76.40;;
3726;SDS011;1879;45.876;12.300;2024-01-25T06:36:49;78.03;;;70.27;;
3726;SDS011;1879;45.876;12.300;2024-01-25T06:39:16;82.33;;;73.83;;
3726;SDS011;1879;45.876;12.300;2024-01-25T06:41:44;79.40;;;71.57;;
3726;SDS011;1879;45.876;12.300;2024-01-25T06:44:11;78.77;;;70.47;;
3726;SDS011;1879;45.876;12.300;2024-01-25T06:46:38;75.43;;;68.10;;
3726;SDS011;1879;45.876;12.300;2024-01-25T06:49:05;80.27;;;71.73;;
3726;SDS011;1879;45.876;12.300;2024-01-25T06:51:32;78.33;;;70.23;;
3726;SDS011;1879;45.876;12.300;2024-01-25T06:53:59;72.57;;;65.07;;
3726;SDS011;1879;45.876;12.300;2024-01-25T06:56:26;71.60;;;63.90;;
3726;SDS011;1879;45.876;12.300;2024-01-25T06:58:54;74.17;;;66.57;;
3726;SDS011;1879;45.876;12.300;2024-01-25T07:01:21;74.50;;;66.73;;
3726;SDS011;1879;45.876;12.300;2024-01-25T07:03:48;74.23;;;66.80;;
3726;SDS011;1879;45.876;12.300;2024-01-25T07:06:16;72.70;;;65.03;;
3726;SDS011;1879;45.876;12.300;2024-01-25T07:08:43;72.73;;;64.60;;
3726;SDS011;1879;45.876;12.300;2024-01-25T07:11:10;71.00;;;63.90;;
3726;SDS011;1879;45.876;12.300;2024-01-25T07:13:37;72.70;;;64.90;;
3726;SDS011;1879;45.876;12.300;2024-01-25T07:16:06;76.10;;;68.00;;
3726;SDS011;1879;45.876;12.300;2024-01-25T07:18:33;92.17;;;80.73;;
3726;SDS011;1879;45.876;12.300;2024-01-25T07:21:00;79.13;;;70.40;;
3726;SDS011;1879;45.876;12.300;2024-01-25T07:23:28;79.27;;;67.80;;
3726;SDS011;1879;45.876;12.300;2024-01-25T07:25:55;64.60;;;57.90;;
3726;SDS011;1879;45.876;12.300;2024-01-25T07:28:22;60.43;;;54.33;;
3726;SDS011;1879;45.876;12.300;2024-01-25T07:30:50;91.83;;;81.77;;
3726;SDS011;1879;45.876;12.300;2024-01-25T07:33:18;100.70;;;87.30;;
3726;SDS011;1879;45.876;12.300;2024-01-25T07:35:45;73.83;;;65.90;;
3726;SDS011;1879;45.876;12.300;2024-01-25T07:38:14;73.00;;;65.80;;
3726;SDS011;1879;45.876;12.300;2024-01-25T07:40:41;82.80;;;74.30;;
3726;SDS011;1879;45.876;12.300;2024-01-25T07:43:08;69.97;;;61.80;;
3726;SDS011;1879;45.876;12.300;2024-01-25T07:45:35;67.60;;;60.70;;
3726;SDS011;1879;45.876;12.300;2024-01-25T07:48:04;69.57;;;62.30;;
3726;SDS011;1879;45.876;12.300;2024-01-25T07:50:32;66.10;;;59.40;;
3726;SDS011;1879;45.876;12.300;2024-01-25T07:52:59;67.80;;;60.57;;
3726;SDS011;1879;45.876;12.300;2024-01-25T07:55:27;61.17;;;54.90;;
3726;SDS011;1879;45.876;12.300;2024-01-25T07:57:55;61.10;;;54.60;;
3726;SDS011;1879;45.876;12.300;2024-01-25T08:00:21;65.57;;;58.53;;
3726;SDS011;1879;45.876;12.300;2024-01-25T08:02:48;59.20;;;53.20;;
3726;SDS011;1879;45.876;12.300;2024-01-25T08:05:15;58.90;;;52.67;;
3726;SDS011;1879;45.876;12.300;2024-01-25T08:07:44;63.73;;;57.03;;
3726;SDS011;1879;45.876;12.300;2024-01-25T08:10:12;67.67;;;60.60;;
3726;SDS011;1879;45.876;12.300;2024-01-25T08:12:39;68.10;;;60.93;;
3726;SDS011;1879;45.876;12.300;2024-01-25T08:15:09;68.37;;;61.17;;
3726;SDS011;1879;45.876;12.300;2024-01-25T08:17:36;62.33;;;55.90;;
3726;SDS011;1879;45.876;12.300;2024-01-25T08:20:04;64.13;;;57.47;;
3726;SDS011;1879;45.876;12.300;2024-01-25T08:22:32;70.20;;;53.70;;
3726;SDS011;1879;45.876;12.300;2024-01-25T08:25:00;66.70;;;54.87;;
3726;SDS011;1879;45.876;12.300;2024-01-25T08:27:29;58.73;;;52.73;;
3726;SDS011;1879;45.876;12.300;2024-01-25T08:29:56;54.97;;;49.20;;
3726;SDS011;1879;45.876;12.300;2024-01-25T08:32:23;57.57;;;51.47;;
3726;SDS011;1879;45.876;12.300;2024-01-25T08:34:50;53.57;;;48.17;;
3726;SDS011;1879;45.876;12.300;2024-01-25T08:37:17;53.80;;;48.00;;
3726;SDS011;1879;45.876;12.300;2024-01-25T08:39:44;56.17;;;50.77;;
3726;SDS011;1879;45.876;12.300;2024-01-25T08:42:15;56.17;;;50.03;;
3726;SDS011;1879;45.876;12.300;2024-01-25T08:44:43;58.90;;;51.97;;
3726;SDS011;1879;45.876;12.300;2024-01-25T08:47:14;54.43;;;48.90;;
3726;SDS011;1879;45.876;12.300;2024-01-25T08:49:41;56.20;;;50.30;;
3726;SDS011;1879;45.876;12.300;2024-01-25T08:52:08;53.63;;;47.90;;
3726;SDS011;1879;45.876;12.300;2024-01-25T08:54:35;51.70;;;46.40;;
3726;SDS011;1879;45.876;12.300;2024-01-25T08:57:03;51.27;;;45.97;;
3726;SDS011;1879;45.876;12.300;2024-01-25T08:59:31;50.13;;;44.93;;
3726;SDS011;1879;45.876;12.300;2024-01-25T09:02:00;50.27;;;45.00;;
3726;SDS011;1879;45.876;12.300;2024-01-25T09:04:27;50.43;;;45.57;;
3726;SDS011;1879;45.876;12.300;2024-01-25T09:06:54;48.17;;;43.57;;
3726;SDS011;1879;45.876;12.300;2024-01-25T09:09:21;48.43;;;43.73;;
3726;SDS011;1879;45.876;12.300;2024-01-25T09:11:48;44.83;;;40.60;;
3726;SDS011;1879;45.876;12.300;2024-01-25T09:14:15;47.57;;;42.67;;
3726;SDS011;1879;45.876;12.300;2024-01-25T09:16:43;48.70;;;43.70;;
3726;SDS011;1879;45.876;12.300;2024-01-25T09:19:10;46.23;;;41.50;;
3726;SDS011;1879;45.876;12.300;2024-01-25T09:21:38;45.03;;;40.40;;
3726;SDS011;1879;45.876;12.300;2024-01-25T09:24:05;45.70;;;40.83;;
3726;SDS011;1879;45.876;12.300;2024-01-25T09:26:32;48.13;;;43.13;;
3726;SDS011;1879;45.876;12.300;2024-01-25T09:28:59;49.37;;;44.47;;
3726;SDS011;1879;45.876;12.300;2024-01-25T09:31:26;46.03;;;41.60;;
3726;SDS011;1879;45.876;12.300;2024-01-25T09:33:55;45.27;;;40.87;;
3726;SDS011;1879;45.876;12.300;2024-01-25T09:36:22;44.40;;;39.80;;
3726;SDS011;1879;45.876;12.300;2024-01-25T09:38:48;44.93;;;40.60;;
3726;SDS011;1879;45.876;12.300;2024-01-25T09:41:15;43.03;;;38.90;;
3726;SDS011;1879;45.876;12.300;2024-01-25T09:43:43;47.00;;;42.40;;
3726;SDS011;1879;45.876;12.300;2024-01-25T09:46:10;44.13;;;39.70;;
3726;SDS011;1879;45.876;12.300;2024-01-25T09:48:40;44.57;;;39.97;;
3726;SDS011;1879;45.876;12.300;2024-01-25T09:51:10;44.03;;;39.87;;
3726;SDS011;1879;45.876;12.300;2024-01-25T09:53:38;44.23;;;39.83;;
3726;SDS011;1879;45.876;12.300;2024-01-25T09:56:07;46.03;;;41.33;;
3726;SDS011;1879;45.876;12.300;2024-01-25T09:58:39;46.03;;;41.97;;
3726;SDS011;1879;45.876;12.300;2024-01-25T10:01:08;47.43;;;42.87;;
3726;SDS011;1879;45.876;12.300;2024-01-25T10:03:37;51.87;;;46.47;;
3726;SDS011;1879;45.876;12.300;2024-01-25T10:06:10;51.43;;;46.40;;
3726;SDS011;1879;45.876;12.300;2024-01-25T10:08:38;60.00;;;53.70;;
3726;SDS011;1879;45.876;12.300;2024-01-25T10:11:05;49.77;;;44.70;;
3726;SDS011;1879;45.876;12.300;2024-01-25T10:13:33;44.77;;;40.47;;
3726;SDS011;1879;45.876;12.300;2024-01-25T10:16:06;46.20;;;41.70;;
3726;SDS011;1879;45.876;12.300;2024-01-25T10:18:36;48.23;;;43.47;;
3726;SDS011;1879;45.876;12.300;2024-01-25T10:21:03;45.30;;;40.97;;
3726;SDS011;1879;45.876;12.300;2024-01-25T10:23:31;43.30;;;39.30;;
3726;SDS011;1879;45.876;12.300;2024-01-25T10:25:58;40.60;;;36.77;;
3726;SDS011;1879;45.876;12.300;2024-01-25T10:28:25;41.00;;;37.20;;
3726;SDS011;1879;45.876;12.300;2024-01-25T10:30:55;39.50;;;35.90;;
3726;SDS011;1879;45.876;12.300;2024-01-25T10:33:23;33.13;;;30.13;;
3726;SDS011;1879;45.876;12.300;2024-01-25T10:35:52;33.13;;;29.87;;
3726;SDS011;1879;45.876;12.300;2024-01-25T10:38:25;34.50;;;30.80;;
3726;SDS011;1879;45.876;12.300;2024-01-25T10:40:53;30.97;;;28.00;;
3726;SDS011;1879;45.876;12.300;2024-01-25T10:43:20;25.60;;;23.30;;
3726;SDS011;1879;45.876;12.300;2024-01-25T10:45:47;23.10;;;20.80;;
3726;SDS011;1879;45.876;12.300;2024-01-25T10:48:20;23.03;;;20.87;;
3726;SDS011;1879;45.876;12.300;2024-01-25T10:50:47;21.77;;;19.70;;
3726;SDS011;1879;45.876;12.300;2024-01-25T10:53:15;18.10;;;16.40;;
3726;SDS011;1879;45.876;12.300;2024-01-25T10:55:43;16.60;;;14.90;;
3726;SDS011;1879;45.876;12.300;2024-01-25T10:58:13;16.10;;;14.40;;
3726;SDS011;1879;45.876;12.300;2024-01-25T11:00:41;16.10;;;14.70;;
3726;SDS011;1879;45.876;12.300;2024-01-25T11:03:15;16.67;;;15.07;;
3726;SDS011;1879;45.876;12.300;2024-01-25T11:05:44;16.40;;;14.90;;
3726;SDS011;1879;45.876;12.300;2024-01-25T11:08:17;15.50;;;14.10;;
3726;SDS011;1879;45.876;12.300;2024-01-25T11:10:47;15.23;;;13.70;;
3726;SDS011;1879;45.876;12.300;2024-01-25T11:13:18;15.93;;;14.37;;
3726;SDS011;1879;45.876;12.300;2024-01-25T11:15:52;15.10;;;13.70;;
3726;SDS011;1879;45.876;12.300;2024-01-25T11:18:20;17.70;;;14.90;;
3726;SDS011;1879;45.876;12.300;2024-01-25T11:20:50;16.67;;;14.97;;
3726;SDS011;1879;45.876;12.300;2024-01-25T11:23:17;17.10;;;15.40;;
3726;SDS011;1879;45.876;12.300;2024-01-25T11:25:45;16.87;;;15.17;;
3726;SDS011;1879;45.876;12.300;2024-01-25T11:28:14;15.47;;;13.80;;
3726;SDS011;1879;45.876;12.300;2024-01-25T11:30:43;17.00;;;15.30;;
3726;SDS011;1879;45.876;12.300;2024-01-25T11:33:12;15.73;;;14.27;;
3726;SDS011;1879;45.876;12.300;2024-01-25T11:35:40;15.83;;;14.30;;
3726;SDS011;1879;45.876;12.300;2024-01-25T11:38:08;16.53;;;14.93;;
3726;SDS011;1879;45.876;12.300;2024-01-25T11:40:35;15.40;;;13.90;;
3726;SDS011;1879;45.876;12.300;2024-01-25T11:43:05;14.17;;;12.87;;
3726;SDS011;1879;45.876;12.300;2024-01-25T11:45:35;13.60;;;12.40;;
3726;SDS011;1879;45.876;12.300;2024-01-25T11:48:09;14.67;;;13.13;;
3726;SDS011;1879;45.876;12.300;2024-01-25T11:50:36;13.10;;;11.80;;
3726;SDS011;1879;45.876;12.300;2024-01-25T11:53:03;12.87;;;11.87;;
3726;SDS011;1879;45.876;12.300;2024-01-25T11:55:30;12.93;;;11.83;;
3726;SDS011;1879;45.876;12.300;2024-01-25T11:57:57;13.13;;;11.90;;
3726;SDS011;1879;45.876;12.300;2024-01-25T12:00:24;12.10;;;11.00;;
3726;SDS011;1879;45.876;12.300;2024-01-25T12:02:51;13.43;;;12.10;;
3726;SDS011;1879;45.876;12.300;2024-01-25T12:05:20;12.53;;;11.30;;
3726;SDS011;1879;45.876;12.300;2024-01-25T12:07:47;12.23;;;11.13;;
3726;SDS011;1879;45.876;12.300;2024-01-25T12:10:15;13.50;;;12.17;;
3726;SDS011;1879;45.876;12.300;2024-01-25T12:12:43;12.57;;;11.37;;
3726;SDS011;1879;45.876;12.300;2024-01-25T12:15:10;13.70;;;11.70;;
3726;SDS011;1879;45.876;12.300;2024-01-25T12:17:37;12.57;;;11.47;;
3726;SDS011;1879;45.876;12.300;2024-01-25T12:20:05;11.70;;;10.70;;
3726;SDS011;1879;45.876;12.300;2024-01-25T12:22:37;11.70;;;10.70;;
3726;SDS011;1879;45.876;12.300;2024-01-25T12:25:06;12.30;;;11.10;;
3726;SDS011;1879;45.876;12.300;2024-01-25T12:27:34;10.93;;;9.90;;
3726;SDS011;1879;45.876;12.300;2024-01-25T12:30:02;11.37;;;10.27;;
3726;SDS011;1879;45.876;12.300;2024-01-25T12:32:30;9.53;;;8.63;;
3726;SDS011;1879;45.876;12.300;2024-01-25T12:34:57;10.70;;;9.70;;
3726;SDS011;1879;45.876;12.300;2024-01-25T12:37:25;9.60;;;8.80;;
3726;SDS011;1879;45.876;12.300;2024-01-25T12:39:54;10.20;;;9.30;;
3726;SDS011;1879;45.876;12.300;2024-01-25T12:42:21;9.57;;;8.73;;
3726;SDS011;1879;45.876;12.300;2024-01-25T12:44:52;9.80;;;8.27;;
3726;SDS011;1879;45.876;12.300;2024-01-25T12:47:19;9.83;;;8.93;;
3726;SDS011;1879;45.876;12.300;2024-01-25T12:49:46;9.13;;;8.37;;
3726;SDS011;1879;45.876;12.300;2024-01-25T12:52:14;9.73;;;8.73;;
3726;SDS011;1879;45.876;12.300;2024-01-25T12:54:41;9.73;;;8.87;;
3726;SDS011;1879;45.876;12.300;2024-01-25T12:57:10;9.50;;;8.70;;
3726;SDS011;1879;45.876;12.300;2024-01-25T12:59:37;8.30;;;7.53;;
3726;SDS011;1879;45.876;12.300;2024-01-25T13:02:05;8.93;;;8.13;;
3726;SDS011;1879;45.876;12.300;2024-01-25T13:04:32;8.30;;;7.60;;
3726;SDS011;1879;45.876;12.300;2024-01-25T13:06:59;8.50;;;7.70;;
3726;SDS011;1879;45.876;12.300;2024-01-25T13:09:27;9.13;;;8.33;;
3726;SDS011;1879;45.876;12.300;2024-01-25T13:11:54;8.90;;;8.10;;
3726;SDS011;1879;45.876;12.300;2024-01-25T13:14:23;10.00;;;8.00;;
3726;SDS011;1879;45.876;12.300;2024-01-25T13:16:50;9.57;;;8.00;;
3726;SDS011;1879;45.876;12.300;2024-01-25T13:19:17;9.10;;;8.13;;
3726;SDS011;1879;45.876;12.300;2024-01-25T13:21:44;9.73;;;8.73;;
3726;SDS011;1879;45.876;12.300;2024-01-25T13:24:11;11.13;;;10.03;;
3726;SDS011;1879;45.876;12.300;2024-01-25T13:26:38;11.50;;;10.33;;
3726;SDS011;1879;45.876;12.300;2024-01-25T13:29:05;12.50;;;11.40;;
3726;SDS011;1879;45.876;12.300;2024-01-25T13:31:39;10.53;;;9.43;;
3726;SDS011;1879;45.876;12.300;2024-01-25T13:34:06;11.53;;;10.53;;
3726;SDS011;1879;45.876;12.300;2024-01-25T13:36:32;23.83;;;18.77;;
3726;SDS011;1879;45.876;12.300;2024-01-25T13:38:59;11.80;;;10.60;;
3726;SDS011;1879;45.876;12.300;2024-01-25T13:41:26;11.60;;;10.70;;
3726;SDS011;1879;45.876;12.300;2024-01-25T13:43:53;8.90;;;8.20;;
3726;SDS011;1879;45.876;12.300;2024-01-25T13:46:20;9.53;;;7.77;;
3726;SDS011;1879;45.876;12.300;2024-01-25T13:48:49;5.57;;;4.37;;
3726;SDS011;1879;45.876;12.300;2024-01-25T13:51:15;4.97;;;3.90;;
3726;SDS011;1879;45.876;12.300;2024-01-25T13:53:42;4.83;;;4.37;;
3726;SDS011;1879;45.876;12.300;2024-01-25T13:56:09;6.20;;;5.40;;
3726;SDS011;1879;45.876;12.300;2024-01-25T13:58:36;6.73;;;6.03;;
3726;SDS011;1879;45.876;12.300;2024-01-25T14:01:03;5.33;;;4.57;;
3726;SDS011;1879;45.876;12.300;2024-01-25T14:03:30;5.30;;;4.80;;
3726;SDS011;1879;45.876;12.300;2024-01-25T14:05:59;4.70;;;4.30;;
3726;SDS011;1879;45.876;12.300;2024-01-25T14:08:29;6.33;;;5.03;;
3726;SDS011;1879;45.876;12.300;2024-01-25T14:10:56;7.10;;;4.73;;
3726;SDS011;1879;45.876;12.300;2024-01-25T14:13:23;5.40;;;4.87;;
3726;SDS011;1879;45.876;12.300;2024-01-25T14:15:50;6.23;;;5.63;;
3726;SDS011;1879;45.876;12.300;2024-01-25T14:18:17;7.37;;;6.27;;
3726;SDS011;1879;45.876;12.300;2024-01-25T14:20:43;8.13;;;7.43;;
3726;SDS011;1879;45.876;12.300;2024-01-25T14:23:12;12.27;;;7.53;;
3726;SDS011;1879;45.876;12.300;2024-01-25T14:25:39;5.67;;;5.13;;
3726;SDS011;1879;45.876;12.300;2024-01-25T14:28:06;5.37;;;4.70;;
3726;SDS011;1879;45.876;12.300;2024-01-25T14:30:32;4.90;;;4.40;;
3726;SDS011;1879;45.876;12.300;2024-01-25T14:32:59;6.07;;;4.87;;
3726;SDS011;1879;45.876;12.300;2024-01-25T14:35:28;6.03;;;5.53;;
3726;SDS011;1879;45.876;12.300;2024-01-25T14:37:56;6.60;;;6.07;;
3726;SDS011;1879;45.876;12.300;2024-01-25T14:40:24;8.47;;;7.70;;